Absecon Heights, New Jersey
Current Conditions -  °F | °C
As of 9:54 PM on Tuesday 25 Nov 2014 (Local Time) from KACY Reporting Station
Few Clouds Few Clouds  
Wind Chill: 47°   Ceiling: Unl
Heat Index: 47°   Visibility: 10mi
Dew Point: 37°   Wind: 0mph
Humidity: 68%   Direction: NA
Pressure: 30.16"   Gusts: NA
Location:  39.4315°N, 74.5003°W
Report Text: KACY 260254Z 00000KT 10SM FEW120 08/03 A3016 RMK AO2 SLP211 T00830028 51023
Loading
Personal Weather Stations






























Interactive Weather Map New forecast layout! Learn more

10-Day Weather Forecast

Advertisements
Track Severe Weather on mobile